createdAt,value
2019-05-20T00:01:19.926Z,91.56
2019-05-20T00:03:21.803Z,91.48
2019-05-20T00:05:24.188Z,91.34
2019-05-20T00:07:25.806Z,91.00
2019-05-20T00:09:28.040Z,90.92
2019-05-20T00:11:31.302Z,90.79
2019-05-20T00:13:33.973Z,90.52
2019-05-20T00:15:36.675Z,90.25
2019-05-20T00:17:38.852Z,90.03
2019-05-20T00:19:44.006Z,90.31
2019-05-20T00:21:46.444Z,90.73
2019-05-20T00:23:48.493Z,90.93
2019-05-20T00:25:51.025Z,91.02
2019-05-20T00:27:53.042Z,91.02
2019-05-20T00:29:55.229Z,90.93
2019-05-20T00:31:57.409Z,90.51
2019-05-20T00:33:59.351Z,90.48
2019-05-20T00:36:01.436Z,90.56
2019-05-20T00:38:03.679Z,90.70
2019-05-20T00:40:06.875Z,90.72
2019-05-20T00:42:09.956Z,90.82
2019-05-20T00:44:12.215Z,90.76
2019-05-20T00:46:14.275Z,90.32
2019-05-20T00:48:16.379Z,90.06
2019-05-20T00:50:18.427Z,90.14
2019-05-20T00:52:20.623Z,89.90
2019-05-20T00:54:22.781Z,89.60
2019-05-20T00:56:25.012Z,89.68
2019-05-20T00:58:27.346Z,89.38
2019-05-20T01:00:30.205Z,89.51
2019-05-20T01:02:32.200Z,89.86
2019-05-20T01:04:34.284Z,89.93
2019-05-20T01:06:36.568Z,89.83
2019-05-20T01:08:38.792Z,90.01
2019-05-20T01:10:41.098Z,90.14
2019-05-20T01:12:43.334Z,89.91
2019-05-20T01:14:45.668Z,89.73
2019-05-20T01:16:48.114Z,89.77
2019-05-20T01:18:50.093Z,89.92
2019-05-20T01:20:52.579Z,89.88
2019-05-20T01:22:55.327Z,90.09
2019-05-20T01:24:57.479Z,90.03
2019-05-20T01:26:59.484Z,89.93
2019-05-20T01:29:01.660Z,90.30
2019-05-20T01:31:03.840Z,90.47
2019-05-20T01:33:13.605Z,90.37
2019-05-20T01:35:11.614Z,90.45
2019-05-20T01:37:13.445Z,90.40
2019-05-20T01:39:15.835Z,90.29
2019-05-20T01:41:17.888Z,90.36
2019-05-20T01:43:20.201Z,90.25
2019-05-20T01:45:22.193Z,90.30
2019-05-20T01:47:24.218Z,90.02
2019-05-20T01:49:26.223Z,90.63
2019-05-20T01:51:28.238Z,90.61
2019-05-20T01:53:30.258Z,90.41
2019-05-20T01:55:32.481Z,90.60
2019-05-20T01:57:34.491Z,90.64
2019-05-20T01:59:36.556Z,90.11
2019-05-20T02:01:38.826Z,90.13
2019-05-20T02:03:41.045Z,90.00
2019-05-20T02:05:46.012Z,89.80
2019-05-20T02:07:48.030Z,89.89
2019-05-20T02:09:50.142Z,89.77
2019-05-20T02:11:52.151Z,90.00
2019-05-20T02:13:58.287Z,89.94
2019-05-20T02:16:03.885Z,89.90
2019-05-20T02:18:05.960Z,90.10
2019-05-20T02:20:08.502Z,89.78
2019-05-20T02:22:12.183Z,89.94
2019-05-20T02:24:14.297Z,90.22
2019-05-20T02:26:16.335Z,90.43
2019-05-20T02:28:18.557Z,90.65
2019-05-20T02:30:20.555Z,90.39
2019-05-20T02:32:22.597Z,90.85
2019-05-20T02:34:24.836Z,90.95
2019-05-20T02:36:26.995Z,90.51
2019-05-20T02:38:29.081Z,90.80
2019-05-20T02:40:31.066Z,91.01
2019-05-20T02:42:34.811Z,91.43
2019-05-20T02:44:36.800Z,91.51
2019-05-20T02:46:39.617Z,91.30
2019-05-20T02:48:42.517Z,91.73
2019-05-20T02:50:45.159Z,92.17
2019-05-20T02:52:47.822Z,91.80
2019-05-20T02:54:51.358Z,91.90
2019-05-20T02:56:53.468Z,92.07
2019-05-20T02:58:55.474Z,92.11
2019-05-20T03:00:57.480Z,91.90
2019-05-20T03:02:59.465Z,91.99
2019-05-20T03:05:01.779Z,92.20
2019-05-20T03:07:04.159Z,91.94
2019-05-20T03:09:06.202Z,91.66
2019-05-20T03:11:09.806Z,91.55
2019-05-20T03:13:11.823Z,91.36
2019-05-20T03:15:14.001Z,91.60
2019-05-20T03:17:15.992Z,91.41
2019-05-20T03:19:18.022Z,90.99
2019-05-20T03:21:20.065Z,90.92
2019-05-20T03:23:22.225Z,91.04
2019-05-20T03:25:24.262Z,90.79
2019-05-20T03:27:26.233Z,90.49
2019-05-20T03:29:28.538Z,90.40
2019-05-20T03:31:30.568Z,90.30
2019-05-20T03:33:32.821Z,90.70
2019-05-20T03:35:35.012Z,90.44
2019-05-20T03:37:37.169Z,90.74
2019-05-20T03:39:40.487Z,90.46
2019-05-20T03:41:42.489Z,90.13
2019-05-20T03:43:44.572Z,90.44
2019-05-20T03:45:46.705Z,90.06
2019-05-20T03:47:48.756Z,89.87
2019-05-20T03:49:50.786Z,89.62
2019-05-20T03:51:55.773Z,89.23
2019-05-20T03:53:57.823Z,89.49
2019-05-20T03:55:59.862Z,89.34
2019-05-20T03:58:01.922Z,89.38
2019-05-20T04:00:04.776Z,89.31
2019-05-20T04:02:06.745Z,89.74
2019-05-20T04:04:08.717Z,89.99
2019-05-20T04:06:10.912Z,90.34
2019-05-20T04:08:12.966Z,90.41
2019-05-20T04:10:15.165Z,90.81
2019-05-20T04:12:17.468Z,90.88
2019-05-20T04:14:22.525Z,90.79
2019-05-20T04:16:24.507Z,90.90
2019-05-20T04:18:26.515Z,91.07
2019-05-20T04:20:29.225Z,91.34
2019-05-20T04:22:32.647Z,91.48
2019-05-20T04:24:34.759Z,91.76
2019-05-20T04:26:36.809Z,92.01
2019-05-20T04:28:38.900Z,92.22
2019-05-20T04:30:41.289Z,92.62
2019-05-20T04:32:44.463Z,92.76
2019-05-20T04:34:46.764Z,92.78
2019-05-20T04:36:48.903Z,92.64
2019-05-20T04:38:53.500Z,92.80
2019-05-20T04:40:55.779Z,92.92
2019-05-20T04:42:58.207Z,93.08
2019-05-20T04:45:00.534Z,93.21
2019-05-20T04:47:03.182Z,93.17
2019-05-20T04:49:06.510Z,93.41
2019-05-20T04:51:09.176Z,93.55
2019-05-20T04:53:11.920Z,93.32
2019-05-20T04:55:14.870Z,93.18
2019-05-20T04:57:17.532Z,93.62
2019-05-20T04:59:20.416Z,93.29
2019-05-20T05:01:23.492Z,93.33
2019-05-20T05:03:28.721Z,93.12
2019-05-20T05:05:37.515Z,93.12
2019-05-20T05:07:36.348Z,93.08
2019-05-20T05:09:38.964Z,92.82
2019-05-20T05:11:41.680Z,92.99
2019-05-20T05:13:43.823Z,93.14
2019-05-20T05:15:46.739Z,93.12
2019-05-20T05:17:49.511Z,92.95
2019-05-20T05:19:52.278Z,92.99
2019-05-20T05:21:55.065Z,93.08
2019-05-20T05:23:59.637Z,92.96
2019-05-20T05:26:02.383Z,92.79
2019-05-20T05:28:05.014Z,92.76
2019-05-20T05:30:08.051Z,92.86
2019-05-20T05:32:10.505Z,92.83
2019-05-20T05:34:12.948Z,92.85
2019-05-20T05:36:16.266Z,92.50
2019-05-20T05:38:18.893Z,92.31
2019-05-20T05:40:25.483Z,92.00
2019-05-20T05:42:28.937Z,92.38
2019-05-20T05:47:07.821Z,91.74
2019-05-20T05:49:10.223Z,91.82
2019-05-20T05:51:13.200Z,91.77
2019-05-20T05:53:16.581Z,91.20
2019-05-20T05:55:19.257Z,90.85
2019-05-20T05:57:22.260Z,91.13
2019-05-20T05:59:25.056Z,91.23
2019-05-20T06:01:28.114Z,91.29
2019-05-20T06:03:30.465Z,91.08
2019-05-20T06:05:34.713Z,91.14
2019-05-20T06:07:38.426Z,92.17
2019-05-20T06:09:41.373Z,91.78
2019-05-20T06:11:44.620Z,92.23
2019-05-20T06:13:47.120Z,92.07
2019-05-20T06:15:49.853Z,92.21
2019-05-20T06:17:52.754Z,92.08
2019-05-20T06:19:55.268Z,92.28
2019-05-20T06:21:57.840Z,91.99
2019-05-20T06:24:00.836Z,91.44
2019-05-20T06:26:03.494Z,91.18
2019-05-20T06:31:01.267Z,90.87
2019-05-20T06:36:05.452Z,90.47
2019-05-20T06:38:12.613Z,90.86
2019-05-20T06:40:15.112Z,90.51
2019-05-20T06:42:19.250Z,90.93
2019-05-20T06:44:21.448Z,91.63
2019-05-20T06:46:24.267Z,91.73
2019-05-20T06:48:26.268Z,91.83
2019-05-20T06:50:29.777Z,91.55
2019-05-20T06:52:35.799Z,91.97
2019-05-20T06:54:36.055Z,92.07
2019-05-20T06:56:38.148Z,91.59
2019-05-20T06:58:41.306Z,91.87
2019-05-20T07:00:44.807Z,91.86
2019-05-20T07:02:46.788Z,91.33
2019-05-20T07:04:48.851Z,91.36
2019-05-20T07:06:51.088Z,91.71
2019-05-20T07:08:52.800Z,91.61
2019-05-20T07:10:57.477Z,91.54
2019-05-20T07:12:59.734Z,91.07
2019-05-20T07:15:02.016Z,91.14
2019-05-20T07:17:06.051Z,91.13
2019-05-20T07:19:08.187Z,91.33
2019-05-20T07:21:10.350Z,91.48
2019-05-20T07:23:12.402Z,91.69
2019-05-20T07:25:14.975Z,92.03
2019-05-20T07:27:16.729Z,91.41
2019-05-20T07:29:18.677Z,91.18
2019-05-20T07:31:21.061Z,91.18
2019-05-20T07:33:23.243Z,91.69
2019-05-20T07:35:30.647Z,91.69
2019-05-20T07:37:30.039Z,91.72
2019-05-20T07:39:31.634Z,91.48
2019-05-20T07:41:33.791Z,91.23
2019-05-20T07:43:35.799Z,91.09
2019-05-20T07:45:37.999Z,91.32
2019-05-20T07:47:40.092Z,91.00
2019-05-20T07:49:43.097Z,91.34
2019-05-20T07:51:45.774Z,91.21
2019-05-20T07:53:48.360Z,90.82
2019-05-20T07:55:53.546Z,91.35
2019-05-20T07:57:59.472Z,91.99
2019-05-20T08:00:02.201Z,91.60
2019-05-20T08:02:05.737Z,91.50
2019-05-20T08:04:07.888Z,91.17
2019-05-20T08:06:10.347Z,90.37
2019-05-20T08:08:12.475Z,91.23
2019-05-20T08:10:15.115Z,90.99
2019-05-20T08:12:17.205Z,91.14
2019-05-20T08:14:19.610Z,91.11
2019-05-20T08:16:21.633Z,90.45
2019-05-20T08:18:23.737Z,90.01
2019-05-20T08:20:26.005Z,90.51
2019-05-20T08:22:27.988Z,90.44
2019-05-20T08:24:29.990Z,90.37
2019-05-20T08:26:32.128Z,90.15
2019-05-20T08:28:34.411Z,90.21
2019-05-20T08:30:38.070Z,89.80
2019-05-20T08:32:40.431Z,90.49
2019-05-20T08:34:42.208Z,89.06
2019-05-20T08:36:44.260Z,88.93
2019-05-20T08:38:46.571Z,88.33
2019-05-20T08:40:49.045Z,88.52
2019-05-20T08:42:50.653Z,88.11
2019-05-20T08:44:54.021Z,88.15
2019-05-20T08:46:56.035Z,88.79
2019-05-20T08:48:58.307Z,88.54
2019-05-20T08:51:00.611Z,89.64
2019-05-20T08:53:02.702Z,89.41
2019-05-20T08:55:05.873Z,89.32
2019-05-20T08:57:08.213Z,89.58
2019-05-20T08:59:09.949Z,88.77
2019-05-20T09:01:12.594Z,88.42
2019-05-20T09:03:14.748Z,87.56
2019-05-20T09:05:17.011Z,87.89
2019-05-20T09:07:19.088Z,88.31
2019-05-20T09:09:21.472Z,87.63
2019-05-20T09:11:23.546Z,87.22
2019-05-20T09:13:25.807Z,86.99
2019-05-20T09:15:28.585Z,86.99
2019-05-20T09:17:31.204Z,87.14
2019-05-20T09:19:34.490Z,86.65
2019-05-20T09:21:36.470Z,86.72
2019-05-20T09:23:38.494Z,87.32
2019-05-20T09:25:40.529Z,87.60
2019-05-20T09:27:42.865Z,87.01
2019-05-20T09:29:45.196Z,87.00
2019-05-20T09:31:47.422Z,87.41
2019-05-20T09:33:50.070Z,86.55
2019-05-20T09:35:52.323Z,86.63
2019-05-20T09:37:54.324Z,86.34
2019-05-20T09:39:56.887Z,86.02
2019-05-20T09:41:58.555Z,84.92
2019-05-20T09:44:00.611Z,85.02
2019-05-20T09:46:07.814Z,85.45
2019-05-20T09:48:07.272Z,85.21
2019-05-20T09:50:09.609Z,85.24
2019-05-20T09:52:11.872Z,85.76
2019-05-20T09:54:13.926Z,84.49
2019-05-20T09:56:16.038Z,85.45
2019-05-20T09:58:18.117Z,85.41
2019-05-20T10:00:20.350Z,85.11
2019-05-20T10:02:22.647Z,85.64
2019-05-20T10:04:24.802Z,86.31
2019-05-20T10:06:27.268Z,85.84
2019-05-20T10:08:39.189Z,85.37
2019-05-20T10:10:33.454Z,84.71
2019-05-20T10:12:46.160Z,85.13
2019-05-20T10:14:39.437Z,84.84
2019-05-20T10:16:41.517Z,84.46
2019-05-20T10:18:43.601Z,84.61
2019-05-20T10:20:45.591Z,84.58
2019-05-20T10:22:48.167Z,84.35
2019-05-20T10:24:50.012Z,85.22
2019-05-20T10:26:52.215Z,85.47
2019-05-20T10:28:54.465Z,84.55
2019-05-20T10:30:56.577Z,83.82
2019-05-20T10:32:58.557Z,84.45
2019-05-20T10:35:00.835Z,84.42
2019-05-20T10:37:03.087Z,84.86
2019-05-20T10:39:07.923Z,85.10
2019-05-20T10:41:09.684Z,84.76
2019-05-20T10:43:11.719Z,84.18
2019-05-20T10:45:14.520Z,83.93
2019-05-20T10:47:16.716Z,84.06
2019-05-20T10:49:18.712Z,83.85
2019-05-20T10:51:20.778Z,83.65
2019-05-20T10:53:23.001Z,84.26
2019-05-20T10:55:27.152Z,83.79
2019-05-20T10:57:29.383Z,83.39
2019-05-20T10:59:31.750Z,83.14
2019-05-20T11:01:33.934Z,82.45
2019-05-20T11:03:35.987Z,83.31
2019-05-20T11:05:38.241Z,82.04
2019-05-20T11:07:40.288Z,81.71
2019-05-20T11:09:42.364Z,81.81
2019-05-20T11:11:44.536Z,81.91
2019-05-20T11:13:46.706Z,81.43
2019-05-20T11:15:48.771Z,81.52
2019-05-20T11:17:51.120Z,81.93
2019-05-20T11:19:53.198Z,82.61
2019-05-20T11:21:55.589Z,81.79
2019-05-20T11:23:57.928Z,81.78
2019-05-20T11:26:00.266Z,81.43
2019-05-20T11:28:01.954Z,81.41
2019-05-20T11:30:05.125Z,81.15
2019-05-20T11:32:07.141Z,81.39
2019-05-20T11:34:09.194Z,81.72
2019-05-20T11:36:11.527Z,83.23
2019-05-20T11:38:13.662Z,83.66
2019-05-20T11:40:16.190Z,84.30
2019-05-20T11:42:21.409Z,83.74
2019-05-20T11:44:24.194Z,83.78
2019-05-20T11:46:26.247Z,84.16
2019-05-20T11:48:28.720Z,84.29
2019-05-20T11:50:30.548Z,83.55
2019-05-20T11:52:33.703Z,83.21
2019-05-20T11:54:36.799Z,82.71
2019-05-20T11:56:38.918Z,82.21
2019-05-20T11:58:41.101Z,81.43
2019-05-20T12:00:43.361Z,81.56
2019-05-20T12:02:45.350Z,82.20
2019-05-20T12:04:47.546Z,82.24
2019-05-20T12:06:49.945Z,82.75
2019-05-20T12:08:51.980Z,82.75
2019-05-20T12:10:54.022Z,82.40
2019-05-20T12:12:56.438Z,81.65
2019-05-20T12:14:58.304Z,81.50
2019-05-20T12:17:00.719Z,80.61
2019-05-20T12:19:02.605Z,80.34
2019-05-20T12:21:04.798Z,80.59
2019-05-20T12:23:06.986Z,80.04
2019-05-20T12:25:09.447Z,79.75
2019-05-20T12:27:11.142Z,79.17
2019-05-20T12:29:13.263Z,79.84
2019-05-20T12:31:16.662Z,80.04
2019-05-20T12:33:19.700Z,81.46
2019-05-20T12:35:22.081Z,80.58
2019-05-20T12:37:24.470Z,80.04
2019-05-20T12:39:26.760Z,78.71
2019-05-20T12:41:28.679Z,78.94
2019-05-20T12:43:31.272Z,80.14
2019-05-20T12:45:34.637Z,79.28
2019-05-20T12:47:36.867Z,78.58
2019-05-20T12:49:39.095Z,78.52
2019-05-20T12:51:41.337Z,78.62
2019-05-20T12:53:43.372Z,78.55
2019-05-20T12:55:45.687Z,78.27
2019-05-20T12:57:47.695Z,79.39
2019-05-20T12:59:49.733Z,78.93
2019-05-20T13:01:51.980Z,79.53
2019-05-20T13:03:54.251Z,79.42
2019-05-20T13:05:56.227Z,80.15
2019-05-20T13:07:58.477Z,79.52
2019-05-20T13:10:03.006Z,78.55
2019-05-20T13:12:04.513Z,80.08
2019-05-20T13:14:07.728Z,79.85
2019-05-20T13:16:10.008Z,79.62
2019-05-20T13:18:12.033Z,80.78
2019-05-20T13:20:14.537Z,81.12
2019-05-20T13:22:16.476Z,81.34
2019-05-20T13:24:18.819Z,80.37
2019-05-20T13:26:20.914Z,81.18
2019-05-20T13:28:23.033Z,81.05
2019-05-20T13:30:25.206Z,80.50
2019-05-20T13:32:27.878Z,81.13
2019-05-20T13:34:29.539Z,81.38
2019-05-20T13:36:31.611Z,81.31
2019-05-20T13:38:33.816Z,81.13
2019-05-20T13:40:46.378Z,82.14
2019-05-20T13:42:40.912Z,82.15
2019-05-20T13:44:43.189Z,82.60
2019-05-20T13:46:45.269Z,82.58
2019-05-20T13:48:47.400Z,81.68
2019-05-20T13:50:49.761Z,80.93
2019-05-20T13:52:51.828Z,81.26
2019-05-20T13:54:53.945Z,80.96
2019-05-20T13:57:02.040Z,81.34
2019-05-20T13:59:05.189Z,82.22
2019-05-20T14:01:07.226Z,82.09
2019-05-20T14:03:09.519Z,81.87
2019-05-20T14:05:11.922Z,81.22
2019-05-20T14:07:14.012Z,81.31
2019-05-20T14:09:16.417Z,82.06
2019-05-20T14:11:26.665Z,82.16
2019-05-20T14:13:22.315Z,82.38
2019-05-20T14:15:24.555Z,82.84
2019-05-20T14:17:26.776Z,83.42
2019-05-20T14:19:28.962Z,84.11
2019-05-20T14:21:31.263Z,83.83
2019-05-20T14:23:34.405Z,83.55
2019-05-20T14:25:37.607Z,83.54
2019-05-20T14:27:40.009Z,83.92
2019-05-20T14:29:42.085Z,83.27
2019-05-20T14:31:45.945Z,83.09
2019-05-20T14:33:48.633Z,83.34
2019-05-20T14:35:50.907Z,82.85
2019-05-20T14:37:55.791Z,82.60
2019-05-20T14:39:58.571Z,82.40
2019-05-20T14:42:01.673Z,81.39
2019-05-20T14:44:03.783Z,81.30
2019-05-20T14:46:06.331Z,81.65
2019-05-20T14:48:08.209Z,81.27
2019-05-20T14:50:10.564Z,81.52
2019-05-20T14:52:12.952Z,81.86
2019-05-20T14:54:14.734Z,81.61
2019-05-20T14:56:17.494Z,81.52
2019-05-20T14:58:19.909Z,81.94
2019-05-20T15:00:21.770Z,81.34
2019-05-20T15:02:23.898Z,81.19
2019-05-20T15:04:26.433Z,81.17
2019-05-20T15:06:28.732Z,80.78
2019-05-20T15:08:34.272Z,80.36
2019-05-20T15:10:35.069Z,81.20
2019-05-20T15:12:37.480Z,81.82
2019-05-20T15:14:42.445Z,81.58
2019-05-20T15:16:43.618Z,81.41
2019-05-20T15:18:46.857Z,81.82
2019-05-20T15:20:48.907Z,81.30
2019-05-20T15:22:51.024Z,80.58
2019-05-20T15:24:53.124Z,81.16
2019-05-20T15:26:57.138Z,81.98
2019-05-20T15:28:59.383Z,81.66
2019-05-20T15:31:01.443Z,82.04
2019-05-20T15:33:03.705Z,81.91
2019-05-20T15:35:06.013Z,81.30
2019-05-20T15:37:08.088Z,81.54
2019-05-20T15:39:11.333Z,81.60
2019-05-20T15:41:13.997Z,81.90
2019-05-20T15:43:16.150Z,82.16
2019-05-20T15:45:18.463Z,81.51
2019-05-20T15:47:20.679Z,82.27
2019-05-20T15:49:22.955Z,82.26
2019-05-20T15:51:26.182Z,82.68
2019-05-20T15:53:28.519Z,82.52
2019-05-20T15:55:32.435Z,82.51
2019-05-20T15:57:34.805Z,81.77
2019-05-20T15:59:45.852Z,82.05
2019-05-20T16:01:41.192Z,82.64
2019-05-20T16:03:43.375Z,82.84
2019-05-20T16:05:45.723Z,83.31
2019-05-20T16:07:49.057Z,83.07
2019-05-20T16:09:51.318Z,83.00
2019-05-20T16:11:53.521Z,82.65
2019-05-20T16:13:55.581Z,82.90
2019-05-20T16:15:57.902Z,83.17
2019-05-20T16:18:00.081Z,82.75
2019-05-20T16:20:02.239Z,82.99
2019-05-20T16:22:06.613Z,82.95
2019-05-20T16:24:10.101Z,83.00
2019-05-20T16:26:11.870Z,83.15
2019-05-20T16:28:14.361Z,83.85
2019-05-20T16:30:16.348Z,84.44
2019-05-20T16:32:18.516Z,84.58
2019-05-20T16:34:21.969Z,84.17
2019-05-20T16:36:24.316Z,83.88
2019-05-20T16:38:26.339Z,83.77
2019-05-20T16:40:28.539Z,83.49
2019-05-20T16:42:30.807Z,84.20
2019-05-20T16:44:32.972Z,84.39
2019-05-20T16:46:35.273Z,84.07
2019-05-20T16:48:37.759Z,84.12
2019-05-20T16:50:39.819Z,85.11
2019-05-20T16:52:42.090Z,84.67
2019-05-20T16:54:44.612Z,84.85
2019-05-20T16:56:46.531Z,84.61
2019-05-20T16:58:48.710Z,84.52
2019-05-20T17:00:51.098Z,85.38
2019-05-20T17:02:52.845Z,85.60
2019-05-20T17:04:55.372Z,85.01
2019-05-20T17:06:57.486Z,84.65
2019-05-20T17:08:59.614Z,84.88
2019-05-20T17:11:01.686Z,83.82
2019-05-20T17:13:04.181Z,84.27
2019-05-20T17:15:06.224Z,84.11
2019-05-20T17:17:08.307Z,84.03
2019-05-20T17:19:10.579Z,84.92
2019-05-20T17:21:12.609Z,85.02
2019-05-20T17:23:14.744Z,85.43
2019-05-20T17:25:17.176Z,84.87
2019-05-20T17:27:18.822Z,85.22
2019-05-20T17:29:20.920Z,84.72
2019-05-20T17:31:23.262Z,85.67
2019-05-20T17:33:25.697Z,85.74
2019-05-20T17:35:27.369Z,86.29
2019-05-20T17:37:29.992Z,86.32
2019-05-20T17:39:32.190Z,85.78
2019-05-20T17:41:34.281Z,85.81
2019-05-20T17:43:36.596Z,86.11
2019-05-20T17:45:38.697Z,85.52
2019-05-20T17:47:40.835Z,85.97
2019-05-20T17:49:43.088Z,86.60
2019-05-20T17:51:45.201Z,86.98
2019-05-20T17:53:47.286Z,86.94
2019-05-20T17:55:49.533Z,86.95
2019-05-20T17:57:51.913Z,87.06
2019-05-20T17:59:55.427Z,87.29
2019-05-20T18:01:58.897Z,86.93
2019-05-20T18:04:00.576Z,86.98
2019-05-20T18:06:02.940Z,87.48
2019-05-20T18:08:06.311Z,87.44
2019-05-20T18:10:09.248Z,87.58
2019-05-20T18:12:11.375Z,88.00
2019-05-20T18:14:16.714Z,88.10
2019-05-20T18:16:18.797Z,87.93
2019-05-20T18:18:20.869Z,87.86
2019-05-20T18:20:23.696Z,87.80
2019-05-20T18:22:25.778Z,88.51
2019-05-20T18:24:27.858Z,88.44
2019-05-20T18:26:30.195Z,88.79
2019-05-20T18:28:32.221Z,88.42
2019-05-20T18:30:34.463Z,88.30
2019-05-20T18:32:38.539Z,88.53
2019-05-20T18:34:40.480Z,88.56
2019-05-20T18:36:42.709Z,88.00
2019-05-20T18:38:44.926Z,87.92
2019-05-20T18:40:46.944Z,87.63
2019-05-20T18:42:51.023Z,87.79
2019-05-20T18:44:53.386Z,87.77
2019-05-20T18:46:56.585Z,88.09
2019-05-20T18:48:58.690Z,88.54
2019-05-20T18:51:00.836Z,88.11
2019-05-20T18:53:02.926Z,87.86
2019-05-20T18:55:05.170Z,88.20
2019-05-20T18:57:08.720Z,88.04
2019-05-20T18:59:11.040Z,87.91
2019-05-20T19:01:13.136Z,88.45
2019-05-20T19:03:15.518Z,88.02
2019-05-20T19:05:17.783Z,88.15
2019-05-20T19:07:20.054Z,88.14
2019-05-20T19:09:22.733Z,88.35
2019-05-20T19:11:24.885Z,88.36
2019-05-20T19:13:26.940Z,88.51
2019-05-20T19:15:29.558Z,88.13
2019-05-20T19:17:31.775Z,88.56
2019-05-20T19:19:34.335Z,88.78
2019-05-20T19:21:36.171Z,88.66
2019-05-20T19:23:38.259Z,88.28
2019-05-20T19:25:40.319Z,87.82
2019-05-20T19:27:42.683Z,88.08
2019-05-20T19:29:45.017Z,88.20
2019-05-20T19:32:00.892Z,88.80
2019-05-20T19:33:52.076Z,88.67
2019-05-20T19:35:55.025Z,88.77
2019-05-20T19:37:59.966Z,89.03
2019-05-20T19:40:04.312Z,88.36
2019-05-20T19:42:08.762Z,88.15
2019-05-20T19:44:13.305Z,87.90
2019-05-20T19:46:16.768Z,87.51
2019-05-20T19:48:19.226Z,88.01
2019-05-20T19:50:21.050Z,88.72
2019-05-20T19:52:23.723Z,88.97
2019-05-20T19:54:25.569Z,88.93
2019-05-20T19:56:28.262Z,88.16
2019-05-20T19:58:30.184Z,88.29
2019-05-20T20:00:32.217Z,87.99
2019-05-20T20:02:35.390Z,87.99
2019-05-20T20:04:38.173Z,87.84
2019-05-20T20:06:40.212Z,87.98
2019-05-20T20:08:42.354Z,88.43
2019-05-20T20:10:44.632Z,88.20
2019-05-20T20:12:47.462Z,88.03
2019-05-20T20:14:49.622Z,88.58
2019-05-20T20:16:54.110Z,88.30
2019-05-20T20:18:58.135Z,88.39
2019-05-20T20:21:00.327Z,88.42
2019-05-20T20:23:02.551Z,88.76
2019-05-20T20:25:04.919Z,88.52
2019-05-20T20:27:07.177Z,88.74
2019-05-20T20:29:11.234Z,88.68
2019-05-20T20:31:13.489Z,89.15
2019-05-20T20:33:15.608Z,89.10
2019-05-20T20:35:18.081Z,88.96
2019-05-20T20:37:21.178Z,88.96
2019-05-20T20:39:23.265Z,89.54
2019-05-20T20:41:25.436Z,90.01
2019-05-20T20:43:32.109Z,90.52
2019-05-20T20:45:33.258Z,90.73
2019-05-20T20:47:41.633Z,90.40
2019-05-20T20:49:39.791Z,89.72
2019-05-20T20:51:41.831Z,89.93
2019-05-20T20:53:44.130Z,90.02
2019-05-20T20:55:46.139Z,90.16
2019-05-20T20:57:48.406Z,90.20
2019-05-20T20:59:50.627Z,90.20
2019-05-20T21:01:56.738Z,90.19
2019-05-20T21:03:56.584Z,90.21
2019-05-20T21:05:58.954Z,90.47
2019-05-20T21:08:00.682Z,90.49
2019-05-20T21:10:03.687Z,90.24
2019-05-20T21:12:06.364Z,90.14
2019-05-20T21:14:08.110Z,90.54
2019-05-20T21:16:10.364Z,90.43
2019-05-20T21:18:12.656Z,90.17
2019-05-20T21:20:14.741Z,90.18
2019-05-20T21:22:16.998Z,90.48
2019-05-20T21:24:19.256Z,90.60
2019-05-20T21:26:21.414Z,90.72
2019-05-20T21:28:23.493Z,90.71
2019-05-20T21:30:25.741Z,91.48
2019-05-20T21:32:27.741Z,91.68
2019-05-20T21:34:29.779Z,91.23
2019-05-20T21:36:46.463Z,91.23
2019-05-20T21:38:36.258Z,91.05
2019-05-20T21:40:38.285Z,91.12
2019-05-20T21:42:40.893Z,91.16
2019-05-20T21:44:43.120Z,91.37
2019-05-20T21:46:45.167Z,91.09
2019-05-20T21:48:47.690Z,90.91
2019-05-20T21:50:49.418Z,90.97
2019-05-20T21:52:51.605Z,91.09
2019-05-20T21:56:12.510Z,90.42
2019-05-20T21:58:14.278Z,90.93
2019-05-20T22:00:23.243Z,91.07
2019-05-20T22:02:27.830Z,91.08
2019-05-20T22:04:30.043Z,91.25
2019-05-20T22:06:32.338Z,91.37
2019-05-20T22:08:34.725Z,91.44
2019-05-20T22:10:36.801Z,91.43
2019-05-20T22:12:39.057Z,91.31
2019-05-20T22:14:41.526Z,91.80
2019-05-20T22:16:43.833Z,91.69
2019-05-20T22:18:45.994Z,91.61
2019-05-20T22:20:48.438Z,91.48
2019-05-20T22:23:09.648Z,91.60
2019-05-20T22:25:11.866Z,91.67
2019-05-20T22:27:14.358Z,91.34
2019-05-20T22:29:16.874Z,91.53
2019-05-20T22:31:18.936Z,91.77
2019-05-20T22:33:21.679Z,91.66
2019-05-20T22:35:24.897Z,91.35
2019-05-20T22:37:27.257Z,91.48
2019-05-20T22:39:29.713Z,91.02
2019-05-20T22:41:31.507Z,91.34
2019-05-20T22:43:33.948Z,91.24
2019-05-20T22:45:36.409Z,91.21
2019-05-20T22:47:38.863Z,91.22
2019-05-20T22:49:45.210Z,91.14
2019-05-20T22:51:51.916Z,91.18
2019-05-20T22:54:13.747Z,91.50
2019-05-20T22:56:15.016Z,91.11
2019-05-20T22:58:18.695Z,91.25
2019-05-20T23:00:20.893Z,91.38
2019-05-20T23:02:22.905Z,91.64
2019-05-20T23:04:25.310Z,91.82
2019-05-20T23:06:27.407Z,91.57
2019-05-20T23:08:29.713Z,91.26
2019-05-20T23:10:32.179Z,91.70
2019-05-20T23:12:33.929Z,92.29
2019-05-20T23:14:36.310Z,92.51
2019-05-20T23:16:38.894Z,92.75
2019-05-20T23:18:41.996Z,92.81
2019-05-20T23:20:44.149Z,92.98
2019-05-20T23:22:46.502Z,92.99
2019-05-20T23:24:48.641Z,92.73
2019-05-20T23:26:51.013Z,93.30
2019-05-20T23:28:52.861Z,93.45
2019-05-20T23:30:55.220Z,93.36
2019-05-20T23:32:57.883Z,93.48
2019-05-20T23:34:59.961Z,93.45
2019-05-20T23:37:02.141Z,93.62
2019-05-20T23:39:06.825Z,93.56
2019-05-20T23:41:09.255Z,93.43
2019-05-20T23:43:10.996Z,93.20
2019-05-20T23:45:14.255Z,93.20
2019-05-20T23:47:16.668Z,93.42
2019-05-20T23:49:18.583Z,93.45
2019-05-20T23:51:20.773Z,93.47
2019-05-20T23:53:23.155Z,93.21
2019-05-20T23:55:25.101Z,93.60
2019-05-20T23:57:27.363Z,93.69
2019-05-20T23:59:29.756Z,94.00
